createdAt,value
2022-12-05T00:04:13.505Z,79.42
2022-12-05T00:09:16.520Z,79.48
2022-12-05T00:14:20.650Z,79.29
2022-12-05T00:19:23.651Z,79.71
2022-12-05T00:24:26.463Z,79.14
2022-12-05T00:29:30.622Z,79.21
2022-12-05T00:34:33.428Z,79.39
2022-12-05T00:39:36.179Z,79.41
2022-12-05T00:44:40.514Z,79.29
2022-12-05T00:49:43.388Z,79.32
2022-12-05T00:54:46.146Z,79.18
2022-12-05T00:59:50.292Z,79.16
2022-12-05T01:04:53.071Z,78.95
2022-12-05T01:09:56.136Z,79.03
2022-12-05T01:15:00.449Z,78.76
2022-12-05T01:20:03.206Z,78.89
2022-12-05T01:25:06.887Z,78.79
2022-12-05T01:30:11.923Z,78.37
2022-12-05T01:35:14.796Z,78.36
2022-12-05T01:40:17.643Z,78.31
2022-12-05T01:45:27.820Z,78.19
2022-12-05T01:50:30.779Z,78.12
2022-12-05T01:55:36.747Z,78.07
2022-12-05T02:00:41.658Z,78.14
2022-12-05T02:05:45.472Z,77.98
2022-12-05T02:10:52.877Z,77.78
2022-12-05T02:16:02.748Z,78.00
2022-12-05T02:21:21.972Z,77.74
2022-12-05T02:26:49.788Z,77.98
2022-12-05T02:32:01.674Z,78.01
2022-12-05T02:37:11.987Z,78.03
2022-12-05T02:42:18.980Z,77.98
2022-12-05T02:47:27.696Z,77.99
2022-12-05T02:52:32.435Z,77.96
2022-12-05T02:57:37.403Z,77.77
2022-12-05T03:02:42.221Z,77.86
2022-12-05T03:07:48.645Z,77.72
2022-12-05T03:12:57.039Z,77.84
2022-12-05T03:18:06.695Z,78.00
2022-12-05T03:23:14.853Z,78.37
2022-12-05T03:28:24.133Z,78.79
2022-12-05T03:33:32.848Z,79.06
2022-12-05T03:38:41.282Z,79.29
2022-12-05T03:43:52.255Z,79.64
2022-12-05T03:49:00.449Z,80.10
2022-12-05T03:54:07.388Z,80.51
2022-12-05T03:59:16.684Z,80.96
2022-12-05T04:04:27.965Z,81.05
2022-12-05T04:09:35.496Z,81.14
2022-12-05T04:14:43.415Z,81.47
2022-12-05T04:20:08.146Z,81.57
2022-12-05T04:25:30.791Z,81.69
2022-12-05T04:30:36.171Z,81.58
2022-12-05T04:35:44.740Z,81.67
2022-12-05T04:40:54.965Z,81.73
2022-12-05T04:46:00.248Z,81.81
2022-12-05T04:51:08.168Z,81.80
2022-12-05T04:56:13.564Z,81.66
2022-12-05T05:01:21.154Z,81.72
2022-12-05T05:06:26.570Z,81.64
2022-12-05T05:11:32.408Z,81.67
2022-12-05T05:16:37.263Z,81.62
2022-12-05T05:21:43.375Z,81.56
2022-12-05T05:26:51.162Z,81.70
2022-12-05T05:31:56.834Z,81.49
2022-12-05T05:37:01.271Z,81.69
2022-12-05T05:42:04.171Z,81.86
2022-12-05T05:47:07.005Z,81.91
2022-12-05T05:52:11.198Z,81.77
2022-12-05T05:57:18.941Z,81.86
2022-12-05T06:02:23.326Z,81.76
2022-12-05T06:07:28.687Z,81.76
2022-12-05T06:12:31.688Z,81.94
2022-12-05T06:17:34.502Z,81.97
2022-12-05T06:22:38.652Z,81.64
2022-12-05T06:27:41.448Z,81.68
2022-12-05T06:32:44.275Z,81.68
2022-12-05T06:37:48.370Z,81.77
2022-12-05T06:42:51.163Z,81.79
2022-12-05T06:47:54.039Z,82.00
2022-12-05T06:52:58.244Z,81.95
2022-12-05T06:58:01.006Z,82.35
2022-12-05T07:03:03.773Z,82.84
2022-12-05T07:08:07.981Z,82.73
2022-12-05T07:13:15.515Z,83.00
2022-12-05T07:18:18.911Z,83.09
2022-12-05T07:23:23.100Z,83.38
2022-12-05T07:28:26.131Z,83.59
2022-12-05T07:33:29.144Z,83.25
2022-12-05T07:38:33.731Z,82.86
2022-12-05T07:43:36.876Z,83.65
2022-12-05T07:48:40.124Z,83.71
2022-12-05T07:53:45.067Z,83.78
2022-12-05T07:58:49.627Z,83.33
2022-12-05T08:03:54.513Z,83.30
2022-12-05T08:08:59.183Z,83.40
2022-12-05T08:14:01.987Z,83.11
2022-12-05T08:19:08.144Z,83.31
2022-12-05T08:24:12.865Z,83.23
2022-12-05T08:29:16.651Z,83.95
2022-12-05T08:34:21.012Z,84.56
2022-12-05T08:39:26.398Z,84.32
2022-12-05T08:44:29.244Z,84.76
2022-12-05T08:49:32.168Z,84.36
2022-12-05T08:54:36.383Z,84.49
2022-12-05T08:59:39.211Z,84.49
2022-12-05T09:04:41.993Z,84.31
2022-12-05T09:09:46.187Z,84.06
2022-12-05T09:14:48.913Z,83.86
2022-12-05T09:19:53.062Z,84.16
2022-12-05T09:24:57.459Z,84.02
2022-12-05T09:30:00.432Z,83.93
2022-12-05T09:35:03.767Z,83.86
2022-12-05T09:40:18.922Z,84.43
2022-12-05T09:45:29.992Z,83.88
2022-12-05T09:50:35.812Z,84.03
2022-12-05T09:55:45.269Z,84.44
2022-12-05T10:00:49.555Z,83.81
2022-12-05T10:05:58.079Z,83.99
2022-12-05T10:11:06.734Z,84.50
2022-12-05T10:16:14.628Z,84.25
2022-12-05T10:21:22.526Z,84.40
2022-12-05T10:26:31.241Z,83.74
2022-12-05T10:31:38.637Z,84.50
2022-12-05T10:36:45.312Z,84.59
2022-12-05T10:41:49.472Z,84.63
2022-12-05T10:46:52.432Z,84.52
2022-12-05T10:51:55.253Z,84.51
2022-12-05T10:56:59.682Z,84.55
2022-12-05T11:02:02.542Z,84.64
2022-12-05T11:07:07.049Z,83.83
2022-12-05T11:12:22.349Z,84.21
2022-12-05T11:17:30.784Z,84.27
2022-12-05T11:22:35.670Z,84.16
2022-12-05T11:27:39.941Z,83.51
2022-12-05T11:32:42.745Z,83.61
2022-12-05T11:37:49.500Z,83.66
2022-12-05T11:43:19.075Z,83.01
2022-12-05T11:48:41.772Z,83.54
2022-12-05T11:54:03.496Z,83.73
2022-12-05T11:59:48.397Z,83.40
2022-12-05T12:04:59.699Z,83.89
2022-12-05T12:10:14.286Z,83.83
2022-12-05T12:15:51.796Z,83.94
2022-12-05T12:21:08.956Z,83.91
2022-12-05T12:26:15.552Z,84.02
2022-12-05T12:31:41.928Z,84.00
2022-12-05T12:36:49.499Z,84.15
2022-12-05T12:42:04.275Z,84.40
2022-12-05T12:47:14.985Z,84.63
2022-12-05T12:52:22.993Z,84.14
2022-12-05T12:57:33.450Z,84.42
2022-12-05T13:02:45.053Z,83.71
2022-12-05T13:07:51.401Z,84.16
2022-12-05T13:12:56.335Z,84.16
2022-12-05T13:18:01.065Z,84.25
2022-12-05T13:23:08.484Z,84.44
2022-12-05T13:28:27.674Z,84.86
2022-12-05T13:33:37.566Z,84.31
2022-12-05T13:38:59.597Z,84.13
2022-12-05T13:44:11.928Z,84.51
2022-12-05T13:49:21.069Z,84.04
2022-12-05T13:54:28.381Z,84.63
2022-12-05T14:00:04.894Z,84.38
2022-12-05T14:05:41.395Z,84.47
2022-12-05T14:11:10.390Z,84.30
2022-12-05T14:16:44.277Z,84.33
2022-12-05T14:22:03.825Z,84.42
2022-12-05T14:27:14.672Z,84.41
2022-12-05T14:32:25.292Z,84.57
2022-12-05T14:37:32.440Z,84.49
2022-12-05T14:42:39.915Z,84.81
2022-12-05T14:47:52.553Z,84.57
2022-12-05T14:53:23.321Z,84.95
2022-12-05T14:58:35.105Z,84.90
2022-12-05T15:03:40.495Z,84.63
2022-12-05T15:08:48.679Z,85.04
2022-12-05T15:13:54.071Z,84.81
2022-12-05T15:19:01.296Z,84.71
2022-12-05T15:24:07.618Z,85.07
2022-12-05T15:29:14.031Z,85.02
2022-12-05T15:34:22.735Z,84.66
2022-12-05T15:39:28.623Z,85.05
2022-12-05T15:44:37.440Z,85.09
2022-12-05T15:49:40.964Z,84.96
2022-12-05T15:54:46.331Z,84.95
2022-12-05T15:59:54.841Z,85.17
2022-12-05T16:04:59.491Z,85.08
2022-12-05T16:10:06.767Z,85.18
2022-12-05T16:15:16.269Z,85.08
2022-12-05T16:20:29.613Z,85.03
2022-12-05T16:25:36.132Z,85.27
2022-12-05T16:30:39.544Z,85.38
2022-12-05T16:35:45.402Z,85.64
2022-12-05T16:40:58.715Z,85.09
2022-12-05T16:46:43.624Z,85.30
2022-12-05T16:51:56.350Z,85.45
2022-12-05T16:57:02.497Z,85.91
2022-12-05T17:02:09.747Z,85.90
2022-12-05T17:07:12.602Z,86.02
2022-12-05T17:12:22.235Z,85.73
2022-12-05T17:17:25.009Z,85.92
2022-12-05T17:22:33.957Z,85.70
2022-12-05T17:27:38.069Z,85.83
2022-12-05T17:32:40.818Z,86.11
2022-12-05T17:37:43.603Z,85.85
2022-12-05T17:42:48.604Z,86.45
2022-12-05T17:47:51.767Z,86.38
2022-12-05T17:52:56.926Z,86.41
2022-12-05T17:58:01.043Z,86.30
2022-12-05T18:03:04.870Z,86.36
2022-12-05T18:08:08.499Z,86.54
2022-12-05T18:13:14.274Z,86.63
2022-12-05T18:18:18.749Z,86.34
2022-12-05T18:23:21.611Z,86.32
2022-12-05T18:28:25.785Z,86.10
2022-12-05T18:33:28.522Z,86.69
2022-12-05T18:38:31.415Z,86.77
2022-12-05T18:43:36.386Z,86.68
2022-12-05T18:48:41.761Z,86.74
2022-12-05T18:53:52.435Z,86.42
2022-12-05T18:58:59.278Z,86.58
2022-12-05T19:04:03.985Z,86.75
2022-12-05T19:09:09.486Z,86.20
2022-12-05T19:14:14.389Z,86.33
2022-12-05T19:19:18.042Z,86.50
2022-12-05T19:24:20.847Z,86.42
2022-12-05T19:29:25.038Z,86.42
2022-12-05T19:34:27.830Z,86.07
2022-12-05T19:39:30.670Z,86.71
2022-12-05T19:44:34.908Z,86.28
2022-12-05T19:49:37.699Z,86.32
2022-12-05T19:54:40.527Z,86.41
2022-12-05T19:59:45.005Z,86.28
2022-12-05T20:04:47.916Z,85.75
2022-12-05T20:09:50.707Z,86.61
2022-12-05T20:14:57.466Z,86.35
2022-12-05T20:20:00.465Z,86.47
2022-12-05T20:25:03.739Z,86.26
2022-12-05T20:30:10.283Z,86.11
2022-12-05T20:35:13.041Z,86.34
2022-12-05T20:40:16.479Z,86.45
2022-12-05T20:45:20.721Z,85.89
2022-12-05T20:50:23.524Z,85.83
2022-12-05T20:55:26.296Z,85.67
2022-12-05T21:00:30.415Z,86.21
2022-12-05T21:05:37.425Z,86.29
2022-12-05T21:10:45.345Z,85.87
2022-12-05T21:15:49.536Z,85.83
2022-12-05T21:20:59.067Z,86.41
2022-12-05T21:26:03.095Z,86.30
2022-12-05T21:31:08.856Z,86.06
2022-12-05T21:36:11.746Z,86.13
2022-12-05T21:41:15.130Z,86.35
2022-12-05T21:46:19.674Z,86.38
2022-12-05T21:51:23.678Z,86.57
2022-12-05T21:56:28.370Z,86.59
2022-12-05T22:01:33.017Z,86.36
2022-12-05T22:06:35.914Z,86.40
2022-12-05T22:11:38.760Z,86.14
2022-12-05T22:16:43.096Z,86.32
2022-12-05T22:21:45.953Z,86.39
2022-12-05T22:26:48.915Z,86.65
2022-12-05T22:31:53.149Z,86.79
2022-12-05T22:36:55.995Z,86.89
2022-12-05T22:41:59.465Z,86.43
2022-12-05T22:47:03.687Z,86.46
2022-12-05T22:52:06.580Z,86.33
2022-12-05T22:57:09.377Z,86.50
2022-12-05T23:02:13.575Z,85.86
2022-12-05T23:07:16.372Z,85.73
2022-12-05T23:12:19.186Z,86.03
2022-12-05T23:17:23.295Z,85.73
2022-12-05T23:22:26.114Z,85.96
2022-12-05T23:27:28.960Z,86.10
2022-12-05T23:32:33.128Z,86.34
2022-12-05T23:37:36.011Z,86.16
2022-12-05T23:42:38.789Z,86.16
2022-12-05T23:47:42.937Z,85.95
2022-12-05T23:52:45.732Z,86.28
2022-12-05T23:57:48.575Z,86.14
